KFWS Airport (Fort Worth Spinks) Information

FAA: FWS - ICAO: KFWS

KFWS Airport Location

State Texas
County Tarrant
City Fort Worth
KFWS Airport is 14 miles south of Fort Worth, TX.
Latitude 32-33-55.3334N
Longitude 097-18-30.1338W
Elevation 700ft

KFWS Airport METARs

METAR KFWS 181235Z AUTO 16009G14KT 10SM CLR 07/01 A2995 RMK AO2 T00740010
Altimeter 29.95"
Temperature 7.4°C (45.3°F)
Wind 160° at 9KT with gusts to 14KT
Clouds Skies are clear.
Visibility 10.0mi
Time observed: 2022-01-18T12:35:00Z

KFWS Airport Details

Status Operational
Activation July 1988
Ownership Public
Usage Public
Chart DALLAS-FT WORTH
ATC on-site Yes
Beacon schedule sunset-sunrise
Beacon color clear green

KFWS Airport Contacts

Owner CITY OF FORT WORTH
Owner address 4201 N. MAIN STREET, FORT WORTH, TX 76106
Owner phone 817-392-5400
Manager TOM CHAPMAN
Manager address PO BOX 1624, FORT STOCKTON, TX 79735
Manager phone 432-336-6261

KFWS Airport (Fort Worth Spinks) Radio Frequencies

KFWS (Airport) Radio Frequencies

UNICOM 122.7
Common traffic advisory frequency (CTAF) 124.625